Time;durP1;ratioP1;P1;durP2;ratioP2;P2;SDS_P1;SDS_P2;PMS_P1;PMS_P2;Temp;Humidity;BMP_temperature;BMP_pressure;BME280_temperature;BME280_humidity;BME280_pressure;Samples;Min_cycle;Max_cycle;Signal;HPM_P1;HPM_P2
2023/04/20 00:00:10;;;;;;;6.82;3.85;;;;;;;18.85;50.70;100116.78;5092623;28;20048;-72
2023/04/20 00:02:41;;;;;;;5.03;3.20;;;;;;;18.84;50.95;100107.84;5092533;28;20237;-72
2023/04/20 00:05:10;;;;;;;6.05;3.58;;;;;;;18.81;50.91;100109.97;5092420;28;20048;-72
2023/04/20 00:07:40;;;;;;;5.30;3.10;;;;;;;18.80;51.04;100109.13;5091776;28;20059;-71
2023/04/20 00:10:09;;;;;;;5.85;3.33;;;;;;;18.79;50.77;100115.53;5092263;28;20046;-70
2023/04/20 00:12:37;;;;;;;4.82;3.53;;;;;;;18.79;50.82;100112.81;5092127;28;20512;-72
2023/04/20 00:15:08;;;;;;;6.07;3.47;;;;;;;18.76;50.93;100107.72;5092103;28;20475;-72
2023/04/20 00:17:38;;;;;;;6.28;3.53;;;;;;;18.76;50.66;100114.97;5092317;28;20047;-71
2023/04/20 00:20:11;;;;;;;5.38;3.30;;;;;;;18.75;50.91;100110.56;5092069;28;20052;-71
2023/04/20 00:22:39;;;;;;;4.70;3.08;;;;;;;18.74;50.71;100109.72;5092174;28;20043;-71
2023/04/20 00:25:10;;;;;;;7.65;3.80;;;;;;;18.72;50.73;100111.72;5091886;28;20098;-70
2023/04/20 00:27:38;;;;;;;4.97;3.20;;;;;;;18.71;50.88;100107.31;5092115;28;20072;-72
2023/04/20 00:30:10;;;;;;;5.40;3.20;;;;;;;18.71;50.88;100107.31;5091834;28;20059;-72
2023/04/20 00:32:38;;;;;;;7.32;3.55;;;;;;;18.70;51.11;100102.91;5091935;28;20490;-72
2023/04/20 00:35:06;;;;;;;6.72;3.42;;;;;;;18.69;51.20;100103.91;5091907;28;20048;-72
2023/04/20 00:37:35;;;;;;;5.45;3.53;;;;;;;18.66;50.91;100101.50;5091878;28;20040;-72
2023/04/20 00:40:04;;;;;;;7.18;3.42;;;;;;;18.66;50.95;100096.09;5091999;28;20047;-72
2023/04/20 00:42:32;;;;;;;6.63;3.47;;;;;;;18.67;50.83;100099.66;5091532;28;20135;-72
2023/04/20 00:45:00;;;;;;;5.43;3.50;;;;;;;18.64;50.99;100097.22;5092569;28;20428;-72
2023/04/20 00:47:29;;;;;;;5.45;3.63;;;;;;;18.63;50.78;100090.13;5093090;28;20071;-72
2023/04/20 00:49:58;;;;;;;5.00;3.40;;;;;;;18.63;50.72;100095.53;5092504;28;20093;-72
2023/04/20 00:52:27;;;;;;;6.50;3.60;;;;;;;18.63;50.84;100095.53;5092912;28;20044;-72
2023/04/20 00:54:55;;;;;;;6.85;4.00;;;;;;;18.59;50.92;100090.41;5092491;28;20048;-72
2023/04/20 00:57:24;;;;;;;5.78;3.67;;;;;;;18.59;50.77;100095.78;5091886;28;20073;-71
2023/04/20 00:59:52;;;;;;;5.60;3.58;;;;;;;18.58;51.27;100087.84;5091749;28;20055;-72
2023/04/20 01:02:20;;;;;;;5.40;3.50;;;;;;;18.58;51.29;100088.69;5091799;28;20105;-72
2023/04/20 01:04:50;;;;;;;5.82;3.63;;;;;;;18.57;51.10;100092.41;5091582;28;20060;-71
2023/04/20 01:07:18;;;;;;;6.25;3.80;;;;;;;18.56;50.68;100087.16;5091493;28;20048;-71
2023/04/20 01:09:46;;;;;;;6.20;3.63;;;;;;;18.54;50.88;100079.19;5091701;28;20070;-72
2023/04/20 01:12:14;;;;;;;5.30;3.35;;;;;;;18.52;50.83;100083.03;5091472;28;20051;-71
2023/04/20 01:14:42;;;;;;;5.90;3.58;;;;;;;18.53;51.23;100090.16;5091559;28;20044;-72
2023/04/20 01:17:12;;;;;;;5.75;3.55;;;;;;;18.50;50.79;100085.88;5091442;28;20050;-71
2023/04/20 01:19:40;;;;;;;6.28;3.90;;;;;;;18.51;50.80;100089.44;5092344;28;20048;-71
2023/04/20 01:22:16;;;;;;;5.80;3.45;;;;;;;18.50;50.85;100085.03;5095227;28;20044;-70
2023/04/20 01:24:45;;;;;;;6.63;3.80;;;;;;;18.48;50.82;100085.19;5095521;28;20048;-71
2023/04/20 01:27:15;;;;;;;6.70;3.63;;;;;;;18.48;50.94;100092.44;5095369;28;20044;-71
2023/04/20 01:29:44;;;;;;;5.43;3.30;;;;;;;18.47;50.60;100093.44;5095229;28;20055;-71
2023/04/20 01:32:13;;;;;;;5.05;3.50;;;;;;;18.44;50.79;100083.78;5095549;28;20455;-71
2023/04/20 01:34:41;;;;;;;6.70;3.92;;;;;;;18.45;51.10;100087.34;5095122;28;20040;-71
2023/04/20 01:37:09;;;;;;;6.22;3.80;;;;;;;18.44;50.95;100086.47;5095212;28;20100;-71
2023/04/20 01:39:39;;;;;;;5.60;3.85;;;;;;;18.41;51.04;100081.34;5094929;28;20485;-71
2023/04/20 01:42:08;;;;;;;5.45;3.58;;;;;;;18.43;51.05;100089.31;5095013;28;20055;-71
2023/04/20 01:44:36;;;;;;;6.38;3.35;;;;;;;18.41;50.70;100084.06;5094966;28;20040;-70
2023/04/20 01:47:05;;;;;;;6.10;3.72;;;;;;;18.41;50.80;100077.81;5094760;28;20048;-70
2023/04/20 01:49:34;;;;;;;6.15;3.35;;;;;;;18.40;51.13;100081.50;5095105;28;20097;-71
2023/04/20 01:52:02;;;;;;;5.78;3.83;;;;;;;18.39;50.77;100090.59;5093623;28;20460;-70
2023/04/20 01:54:30;;;;;;;5.28;3.60;;;;;;;18.36;50.81;100085.50;5094823;28;20090;-70
2023/04/20 01:57:01;;;;;;;5.15;3.50;;;;;;;18.35;50.89;100081.09;5094715;28;20101;-71
2023/04/20 01:59:29;;;;;;;6.13;3.95;;;;;;;18.35;50.77;100081.09;5094516;28;20485;-71
2023/04/20 02:01:57;;;;;;;5.63;3.65;;;;;;;18.35;50.86;100086.50;5093462;28;20504;-71
2023/04/20 02:04:26;;;;;;;5.70;3.80;;;;;;;18.35;50.84;100081.09;5094907;28;20583;-71
2023/04/20 02:06:54;;;;;;;7.43;3.70;;;;;;;18.34;50.82;100084.81;5094535;28;20147;-70
2023/04/20 02:09:22;;;;;;;6.72;4.13;;;;;;;18.31;50.47;100086.78;5094697;28;20048;-71
2023/04/20 02:11:50;;;;;;;5.63;3.42;;;;;;;18.30;50.81;100082.38;5094400;28;20055;-71
2023/04/20 02:14:20;;;;;;;5.80;3.60;;;;;;;18.29;50.95;100080.69;5094360;28;20090;-71
2023/04/20 02:16:48;;;;;;;6.10;3.67;;;;;;;18.29;50.89;100088.78;5094460;28;20158;-70
2023/04/20 02:19:16;;;;;;;5.53;3.53;;;;;;;18.28;51.04;100091.63;5094450;28;20063;-71
2023/04/20 02:21:45;;;;;;;6.40;3.60;;;;;;;18.28;51.15;100091.63;5094237;28;20050;-71
2023/04/20 02:24:13;;;;;;;6.18;3.70;;;;;;;18.22;51.12;100082.25;5094596;28;20408;-71
2023/04/20 02:26:41;;;;;;;7.07;3.95;;;;;;;18.26;51.01;100091.78;5093564;28;20051;-70
2023/04/20 02:29:09;;;;;;;5.55;3.25;;;;;;;18.25;50.93;100090.09;5093884;28;20109;-71
2023/04/20 02:31:39;;;;;;;5.22;3.30;;;;;;;18.23;50.80;100092.06;5093358;28;20076;-71
2023/04/20 02:34:08;;;;;;;5.88;3.70;;;;;;;18.23;50.85;100089.34;5094104;28;20098;-71
2023/04/20 02:36:37;;;;;;;6.40;3.55;;;;;;;18.23;50.86;100094.75;5093976;28;20106;-71
2023/04/20 02:39:05;;;;;;;5.55;3.60;;;;;;;18.21;50.92;100091.34;5093859;28;20044;-71
2023/04/20 02:41:33;;;;;;;5.47;3.30;;;;;;;18.19;50.93;100087.94;5094039;28;20084;-72
2023/04/20 02:44:02;;;;;;;5.18;3.88;;;;;;;18.20;50.93;100088.81;5093986;28;20040;-71
2023/04/20 02:46:30;;;;;;;4.88;3.40;;;;;;;18.19;50.70;100092.50;5093688;28;20044;-71
2023/04/20 02:49:00;;;;;;;5.65;3.60;;;;;;;18.18;50.83;100090.81;5093856;28;20123;-71
2023/04/20 02:51:28;;;;;;;4.55;3.15;;;;;;;18.18;50.83;100096.19;5093678;28;20412;-71
2023/04/20 02:53:56;;;;;;;5.57;3.90;;;;;;;18.17;50.96;100094.50;5093620;28;20046;-72
2023/04/20 02:56:25;;;;;;;5.82;3.40;;;;;;;18.13;51.02;100099.31;5093763;28;20048;-70
2023/04/20 02:58:54;;;;;;;6.75;3.80;;;;;;;18.14;50.67;100103.72;5093558;28;20086;-73
2023/04/20 03:01:22;;;;;;;7.18;3.63;;;;;;;18.13;50.78;100103.88;5093667;28;20055;-70
2023/04/20 03:03:50;;;;;;;6.57;3.65;;;;;;;18.12;51.02;100103.00;5093525;28;20051;-70
2023/04/20 03:06:20;;;;;;;5.65;3.60;;;;;;;18.12;50.78;100107.56;5093818;28;20040;-70
2023/04/20 03:08:48;;;;;;;5.68;3.35;;;;;;;18.12;50.66;100119.22;5093207;28;20060;-70
2023/04/20 03:11:17;;;;;;;4.95;3.15;;;;;;;18.09;50.76;100110.56;5093379;28;20044;-71
2023/04/20 03:13:45;;;;;;;5.70;3.78;;;;;;;18.09;50.81;100108.72;5093397;28;20044;-70
2023/04/20 03:16:13;;;;;;;4.75;3.35;;;;;;;18.09;50.88;100113.25;5093507;28;20372;-70
2023/04/20 03:18:41;;;;;;;6.68;3.97;;;;;;;18.07;50.78;100099.91;5093219;28;20044;-70
2023/04/20 03:21:11;;;;;;;5.82;3.33;;;;;;;18.07;50.79;100110.72;5092977;28;20056;-70
2023/04/20 03:23:40;;;;;;;6.03;3.88;;;;;;;18.05;50.49;100106.44;5093107;28;20540;-71
2023/04/20 03:26:08;;;;;;;5.95;3.80;;;;;;;18.03;50.59;100098.47;5092769;28;20485;-71
2023/04/20 03:28:36;;;;;;;5.68;3.47;;;;;;;18.03;50.62;100106.56;5092977;28;20048;-70
2023/04/20 03:31:05;;;;;;;5.80;3.85;;;;;;;18.03;50.79;100109.28;5092680;28;20139;-71
2023/04/20 03:33:33;;;;;;;6.05;4.13;;;;;;;18.02;51.04;100107.56;5092790;28;20051;-70
2023/04/20 03:36:02;;;;;;;6.18;4.50;;;;;;;18.01;50.67;100112.13;5092744;28;20520;-71
2023/04/20 03:38:30;;;;;;;6.40;4.13;;;;;;;17.99;50.63;100115.97;5093181;28;20080;-70
2023/04/20 03:41:00;;;;;;;6.65;4.00;;;;;;;17.99;50.92;100111.41;5094379;28;20051;-71
2023/04/20 03:43:31;;;;;;;5.82;3.58;;;;;;;17.99;50.79;100118.66;5092534;28;20055;-71
2023/04/20 03:45:59;;;;;;;5.95;3.60;;;;;;;17.98;50.83;100122.34;5092784;28;20052;-71
2023/04/20 03:48:27;;;;;;;5.32;3.80;;;;;;;17.97;50.62;100124.22;5092617;28;20048;-71
2023/04/20 03:50:55;;;;;;;6.57;3.97;;;;;;;17.95;50.79;100126.19;5092616;28;20052;-71
2023/04/20 03:53:24;;;;;;;6.25;3.83;;;;;;;17.95;50.83;100123.50;5092653;28;20048;-71
2023/04/20 03:55:53;;;;;;;6.53;3.90;;;;;;;17.95;50.91;100125.31;5092618;28;20066;-71
2023/04/20 03:58:22;;;;;;;7.68;5.00;;;;;;;17.93;50.64;100121.91;5092435;28;20460;-71
2023/04/20 04:00:50;;;;;;;7.03;4.47;;;;;;;17.93;50.82;100124.63;5092197;28;20052;-71
2023/04/20 04:03:19;;;;;;;7.03;4.30;;;;;;;17.92;50.90;100128.31;5092536;28;20044;-71
2023/04/20 04:05:47;;;;;;;5.95;4.38;;;;;;;17.89;50.83;100121.38;5092444;28;20051;-71
2023/04/20 04:08:16;;;;;;;6.72;3.72;;;;;;;17.91;50.77;100123.91;5092482;28;20102;-70
2023/04/20 04:10:44;;;;;;;6.15;3.70;;;;;;;17.89;50.84;100121.38;5092465;28;20052;-71
2023/04/20 04:13:12;;;;;;;7.25;3.80;;;;;;;17.88;50.79;100116.13;5092277;28;20048;-71
2023/04/20 04:15:42;;;;;;;5.93;3.85;;;;;;;17.89;50.76;100129.47;5092327;28;20139;-71
2023/04/20 04:18:11;;;;;;;6.82;4.20;;;;;;;17.85;51.08;100127.16;5092147;28;20058;-71
2023/04/20 04:20:39;;;;;;;6.93;4.28;;;;;;;17.87;50.75;100127.91;5092157;28;20451;-71
2023/04/20 04:23:08;;;;;;;6.47;3.60;;;;;;;17.86;50.81;100134.28;5092016;28;20532;-71
2023/04/20 04:25:38;;;;;;;5.78;3.85;;;;;;;17.85;51.08;100129.88;5091989;28;20052;-71
2023/04/20 04:28:07;;;;;;;6.07;4.22;;;;;;;17.85;50.96;100133.41;5091792;28;20481;-71
2023/04/20 04:30:35;;;;;;;6.47;3.92;;;;;;;17.86;50.74;100131.59;5091965;28;20050;-71
2023/04/20 04:33:05;;;;;;;6.43;4.15;;;;;;;17.83;50.81;100123.78;5092142;28;20044;-71
2023/04/20 04:35:33;;;;;;;4.85;3.50;;;;;;;17.85;50.89;100129.88;5091988;28;20397;-71
2023/04/20 04:38:02;;;;;;;5.70;3.88;;;;;;;17.84;50.94;100134.41;5091843;28;20547;-71
2023/04/20 04:40:31;;;;;;;7.03;3.95;;;;;;;17.82;50.75;100128.31;5091838;28;20048;-71
2023/04/20 04:43:01;;;;;;;6.82;4.18;;;;;;;17.81;50.76;100125.75;5092013;28;20054;-71
2023/04/20 04:45:29;;;;;;;5.85;4.00;;;;;;;17.82;50.60;100130.16;5091891;28;20048;-71
2023/04/20 04:47:58;;;;;;;5.72;3.92;;;;;;;17.81;50.94;100129.31;5091814;28;20044;-71
2023/04/20 04:50:29;;;;;;;6.95;3.97;;;;;;;17.81;50.88;100128.47;5090745;28;20058;-71
2023/04/20 04:52:57;;;;;;;5.90;3.90;;;;;;;17.80;51.28;100130.31;5091730;28;20048;-71
2023/04/20 04:55:25;;;;;;;5.03;3.72;;;;;;;17.80;50.95;100124.91;5095031;28;20051;-70
2023/04/20 04:57:54;;;;;;;5.95;3.90;;;;;;;17.81;51.17;100133.84;5096231;28;20420;-72
2023/04/20 05:00:24;;;;;;;7.40;4.28;;;;;;;17.80;51.58;100132.16;5095972;28;20571;-70
2023/04/20 05:02:52;;;;;;;6.15;3.42;;;;;;;17.80;51.55;100133.00;5096021;28;20052;-69
2023/04/20 05:05:21;;;;;;;6.00;4.07;;;;;;;17.80;52.05;100137.56;5095781;28;20048;-69
2023/04/20 05:07:51;;;;;;;6.72;3.90;;;;;;;17.79;52.01;100131.31;5098411;28;20071;-68
2023/04/20 05:10:19;;;;;;;8.75;4.40;;;;;;;17.81;52.08;100136.56;5096174;28;20405;-69
2023/04/20 05:12:47;;;;;;;10.52;4.20;;;;;;;17.83;52.14;100145.34;5095660;28;20048;-72
2023/04/20 05:15:16;;;;;;;8.18;4.95;;;;;;;17.83;52.00;100146.19;5096125;28;20055;-72
2023/04/20 05:17:48;;;;;;;9.52;4.93;;;;;;;17.84;52.75;100152.44;5096411;28;20386;-71
2023/04/20 05:20:28;;;;;;;10.63;5.65;;;;;;;17.87;53.34;100144.94;5089674;28;20123;-74
2023/04/20 05:22:57;;;;;;;8.55;5.88;;;;;;;17.90;54.16;100151.91;5075300;28;20139;-70
2023/04/20 05:25:26;;;;;;;13.00;5.90;;;;;;;17.93;54.40;100157.84;5075054;28;20051;-71
2023/04/20 05:27:54;;;;;;;9.38;5.70;;;;;;;17.95;54.44;100155.00;5074866;28;20055;-71
2023/04/20 05:30:22;;;;;;;7.82;4.88;;;;;;;17.96;54.42;100157.59;5074850;28;20114;-71
2023/04/20 05:32:50;;;;;;;10.60;5.93;;;;;;;17.97;53.70;100159.28;5074874;28;20082;-73
2023/04/20 05:35:20;;;;;;;13.77;5.70;;;;;;;17.97;53.57;100161.13;5074987;28;20102;-70
2023/04/20 05:37:48;;;;;;;12.93;5.63;;;;;;;18.00;53.44;100168.94;5075143;28;20085;-71
2023/04/20 05:40:18;;;;;;;9.25;5.72;;;;;;;18.01;53.52;100159.84;5074776;28;20071;-71
2023/04/20 05:42:46;;;;;;;10.38;5.35;;;;;;;18.00;53.23;100161.69;5074543;28;20059;-71
2023/04/20 05:45:14;;;;;;;8.85;5.72;;;;;;;18.02;53.37;100164.25;5074436;28;20052;-71
2023/04/20 05:47:42;;;;;;;11.50;5.82;;;;;;;18.01;53.09;100165.25;5074927;28;20049;-71
2023/04/20 05:50:10;;;;;;;10.20;6.05;;;;;;;18.03;53.26;100171.34;5074842;28;20044;-72
2023/04/20 05:52:39;;;;;;;11.25;5.55;;;;;;;18.02;53.41;100162.41;5074654;28;20044;-72
2023/04/20 05:55:08;;;;;;;9.20;5.50;;;;;;;18.02;53.84;100169.66;5074552;28;20395;-72
2023/04/20 05:57:41;;;;;;;11.45;5.70;;;;;;;18.06;53.86;100173.78;5074384;28;20044;-71
2023/04/20 06:00:12;;;;;;;12.05;5.45;;;;;;;18.08;53.67;100173.63;5074662;28;20110;-72
2023/04/20 06:02:41;;;;;;;10.60;5.47;;;;;;;18.07;53.55;100170.09;5074058;28;20144;-71
2023/04/20 06:05:10;;;;;;;7.63;5.43;;;;;;;18.07;53.58;100171.94;5073492;28;20044;-71
2023/04/20 06:07:39;;;;;;;9.32;5.35;;;;;;;18.08;53.85;100171.78;5074451;28;20470;-73
2023/04/20 06:10:09;;;;;;;9.18;5.10;;;;;;;18.09;53.34;100178.03;5073130;28;20470;-71
2023/04/20 06:12:38;;;;;;;11.00;5.28;;;;;;;18.09;53.89;100176.19;5074062;28;20084;-72
2023/04/20 06:15:09;;;;;;;12.18;5.25;;;;;;;18.10;53.88;100175.19;5073545;28;20049;-72
2023/04/20 06:17:39;;;;;;;11.80;5.53;;;;;;;18.10;53.55;100177.03;5073549;28;20405;-72
2023/04/20 06:20:10;;;;;;;9.60;4.82;;;;;;;18.10;54.09;100174.34;5072538;28;20052;-72
2023/04/20 06:22:42;;;;;;;9.63;5.10;;;;;;;18.11;53.66;100171.50;5073577;28;20413;-70
2023/04/20 06:25:11;;;;;;;10.77;5.43;;;;;;;18.10;53.74;100172.50;5073419;28;20067;-70
2023/04/20 06:27:40;;;;;;;8.90;4.93;;;;;;;18.11;53.80;100176.88;5073895;28;20080;-71
2023/04/20 06:30:09;;;;;;;8.52;4.97;;;;;;;18.10;54.30;100180.59;5074193;28;20052;-72
2023/04/20 06:32:37;;;;;;;15.63;5.35;;;;;;;18.12;53.68;100184.00;5074811;28;20060;-71
2023/04/20 06:35:07;;;;;;;12.23;5.00;;;;;;;18.13;53.79;100184.84;5073865;28;20048;-72
2023/04/20 06:37:35;;;;;;;11.68;5.22;;;;;;;18.11;53.61;100182.28;5073846;28;20055;-71
2023/04/20 06:40:08;;;;;;;7.85;4.90;;;;;;;18.13;53.73;100184.84;5073915;28;20068;-71
2023/04/20 06:42:36;;;;;;;9.30;4.63;;;;;;;18.13;53.46;100183.00;5073415;28;20056;-71
2023/04/20 06:45:08;;;;;;;8.38;4.93;;;;;;;18.14;53.50;100182.00;5073588;28;20041;-71
2023/04/20 06:47:38;;;;;;;7.30;4.90;;;;;;;18.13;53.38;100180.28;5073479;28;20550;-71
2023/04/20 06:50:08;;;;;;;7.60;4.72;;;;;;;18.14;53.62;100179.28;5073155;28;20060;-72
2023/04/20 06:52:37;;;;;;;9.00;4.78;;;;;;;18.15;53.48;100175.63;5073356;28;20056;-71
2023/04/20 06:55:06;;;;;;;12.82;5.40;;;;;;;18.16;53.50;100173.78;5073622;28;20044;-72
2023/04/20 06:57:36;;;;;;;8.20;5.03;;;;;;;18.18;53.52;100177.19;5073361;28;20044;-71
2023/04/20 07:00:08;;;;;;;7.75;4.65;;;;;;;18.17;53.16;100173.63;5073264;28;20055;-72
2023/04/20 07:02:44;;;;;;;9.30;5.15;;;;;;;18.17;53.24;100176.34;5073007;28;20508;-72
2023/04/20 07:05:13;;;;;;;11.77;4.90;;;;;;;18.18;53.35;100177.19;5073347;28;20469;-71
2023/04/20 07:07:42;;;;;;;9.00;4.90;;;;;;;18.18;52.95;100171.78;5072929;28;20052;-71
2023/04/20 07:10:12;;;;;;;8.18;5.13;;;;;;;18.19;53.30;100182.44;5073124;28;20076;-70
2023/04/20 07:12:41;;;;;;;7.18;4.65;;;;;;;18.18;53.31;100178.03;5073006;28;20409;-71
2023/04/20 07:15:12;;;;;;;7.88;4.30;;;;;;;18.19;52.98;100185.13;5073138;28;20044;-71
2023/04/20 07:17:41;;;;;;;7.35;4.78;;;;;;;18.20;53.22;100178.72;5072869;28;20045;-71
2023/04/20 07:20:09;;;;;;;9.88;4.80;;;;;;;18.22;53.35;100174.03;5073092;28;20045;-70
2023/04/20 07:22:39;;;;;;;9.50;5.15;;;;;;;18.23;53.02;100186.53;5072899;28;20056;-70
2023/04/20 07:25:09;;;;;;;9.00;4.93;;;;;;;18.22;52.83;100190.22;5072733;28;20043;-71
2023/04/20 07:27:38;;;;;;;7.22;4.65;;;;;;;18.22;53.43;100181.28;5072722;28;20045;-70
2023/04/20 07:30:11;;;;;;;8.07;4.57;;;;;;;18.23;53.44;100181.13;5072478;28;20463;-71
2023/04/20 07:32:41;;;;;;;7.75;4.68;;;;;;;18.25;53.60;100183.72;5072820;28;20421;-72
2023/04/20 07:35:10;;;;;;;10.25;4.70;;;;;;;18.25;53.47;100187.28;5072668;28;20041;-71
2023/04/20 07:37:38;;;;;;;9.02;4.88;;;;;;;18.25;53.23;100184.56;5072623;28;20094;-70
2023/04/20 07:40:09;;;;;;;8.40;4.60;;;;;;;18.27;53.12;100189.81;5072408;28;20052;-72
2023/04/20 07:42:37;;;;;;;9.38;4.78;;;;;;;18.28;53.00;100191.53;5072641;28;20379;-71
2023/04/20 07:45:07;;;;;;;8.27;4.57;;;;;;;18.28;53.30;100184.28;5072638;28;20106;-72
2023/04/20 07:47:35;;;;;;;8.77;4.30;;;;;;;18.29;52.87;100191.38;5072507;28;20094;-70
2023/04/20 07:50:06;;;;;;;7.75;4.57;;;;;;;18.30;53.52;100186.81;5072592;28;20045;-72
2023/04/20 07:52:35;;;;;;;7.22;4.57;;;;;;;18.28;53.32;100195.06;5072440;28;20464;-70
2023/04/20 07:55:03;;;;;;;10.13;4.90;;;;;;;18.28;53.56;100184.28;5072315;28;20056;-71
2023/04/20 07:57:32;;;;;;;6.90;4.28;;;;;;;18.31;53.72;100189.38;5072446;28;20084;-71
2023/04/20 08:00:00;;;;;;;8.70;4.50;;;;;;;18.30;53.32;100182.28;5072388;28;20306;-72
2023/04/20 08:02:31;;;;;;;6.75;4.28;;;;;;;18.30;53.59;100174.19;5072095;28;20049;-71
2023/04/20 08:05:02;;;;;;;8.88;4.35;;;;;;;18.34;53.28;100182.88;5072054;28;20474;-71
2023/04/20 08:07:32;;;;;;;8.30;4.32;;;;;;;18.35;53.40;100189.13;5071789;28;20067;-71
2023/04/20 08:10:01;;;;;;;7.32;4.53;;;;;;;18.36;53.35;100185.41;5072207;28;20053;-71
2023/04/20 08:12:29;;;;;;;8.45;4.20;;;;;;;18.36;53.44;100188.13;5072576;28;20044;-72
2023/04/20 08:15:00;;;;;;;6.20;4.22;;;;;;;18.38;53.19;100184.28;5071844;28;20565;-72
2023/04/20 08:17:29;;;;;;;7.28;4.50;;;;;;;18.39;53.29;100185.13;5072257;28;20048;-71
2023/04/20 08:19:57;;;;;;;6.72;4.32;;;;;;;18.40;53.09;100186.81;5071794;28;20482;-71
2023/04/20 08:22:28;;;;;;;8.30;4.55;;;;;;;18.40;53.51;100184.97;5072184;28;20412;-71
2023/04/20 08:24:58;;;;;;;8.10;4.30;;;;;;;18.41;53.38;100185.81;5071887;28;20097;-71
2023/04/20 08:27:28;;;;;;;7.07;4.20;;;;;;;18.42;53.19;100182.13;5071853;28;20045;-71
2023/04/20 08:29:56;;;;;;;6.82;4.53;;;;;;;18.44;53.26;100180.16;5071109;28;20052;-71
2023/04/20 08:32:25;;;;;;;7.80;4.30;;;;;;;18.44;53.00;100177.44;5071785;28;20095;-71
2023/04/20 08:34:54;;;;;;;6.75;4.20;;;;;;;18.45;53.32;100176.44;5072012;28;20051;-71
2023/04/20 08:37:22;;;;;;;8.13;4.60;;;;;;;18.46;53.11;100172.75;5071825;28;20055;-71
2023/04/20 08:39:51;;;;;;;8.05;4.07;;;;;;;18.47;53.30;100177.16;5072044;28;20181;-71
2023/04/20 08:42:21;;;;;;;8.30;4.32;;;;;;;18.47;53.31;100177.16;5071779;28;20052;-71
2023/04/20 08:44:50;;;;;;;8.50;4.10;;;;;;;18.48;53.59;100168.91;5071440;28;20056;-71
2023/04/20 08:47:21;;;;;;;7.22;4.45;;;;;;;18.50;53.39;100171.44;5071449;28;20603;-71
2023/04/20 08:49:53;;;;;;;6.75;4.07;;;;;;;18.51;53.50;100170.44;5071888;28;20056;-71
2023/04/20 08:52:21;;;;;;;6.35;4.13;;;;;;;18.53;53.75;100176.59;5071820;28;20052;-72
2023/04/20 08:54:50;;;;;;;6.65;4.50;;;;;;;18.51;53.64;100168.59;5071634;28;20055;-70
2023/04/20 08:57:26;;;;;;;7.28;4.03;;;;;;;18.57;53.62;100172.59;5071301;28;20048;-71
2023/04/20 08:59:56;;;;;;;6.57;4.10;;;;;;;18.54;53.37;100162.06;5071456;28;20044;-72
2023/04/20 09:02:24;;;;;;;6.47;4.07;;;;;;;18.57;53.32;100173.44;5071691;28;20124;-72
2023/04/20 09:05:02;;;;;;;7.20;3.95;;;;;;;18.60;53.68;100177.69;5071425;28;20056;-71
2023/04/20 09:07:31;;;;;;;7.93;4.15;;;;;;;18.62;53.61;100174.84;5071448;28;20052;-70
2023/04/20 09:10:00;;;;;;;6.03;3.97;;;;;;;18.62;53.57;100175.69;5072480;28;20048;-72
2023/04/20 09:12:40;;;;;;;6.15;4.00;;;;;;;18.62;53.70;100167.56;5072387;28;20056;-71
2023/04/20 09:15:10;;;;;;;7.03;4.10;;;;;;;18.65;53.59;100174.59;5071417;28;20044;-71
2023/04/20 09:17:40;;;;;;;6.65;4.20;;;;;;;18.67;53.53;100178.84;5071384;28;20051;-71
2023/04/20 09:20:10;;;;;;;7.90;3.85;;;;;;;18.68;54.05;100174.28;5071490;28;20053;-71
2023/04/20 09:22:39;;;;;;;6.32;3.95;;;;;;;18.69;53.71;100176.84;5070834;28;20045;-71
2023/04/20 09:25:17;;;;;;;7.32;4.50;;;;;;;18.70;53.61;100162.34;5070907;28;20106;-71
2023/04/20 09:27:57;;;;;;;5.88;4.00;;;;;;;18.71;53.96;100161.34;5071273;28;20048;-71
2023/04/20 09:30:25;;;;;;;6.15;4.25;;;;;;;18.74;53.85;100163.75;5071095;28;20135;-72
2023/04/20 09:33:03;;;;;;;6.63;4.10;;;;;;;18.75;54.02;100164.63;5071202;28;20048;-72
2023/04/20 09:35:32;;;;;;;6.47;4.35;;;;;;;18.77;53.82;100163.47;5071087;28;20189;-72
2023/04/20 09:38:00;;;;;;;6.57;4.10;;;;;;;18.79;54.13;100174.97;5071025;28;20098;-72
2023/04/20 09:40:31;;;;;;;7.50;4.45;;;;;;;18.81;53.80;100172.97;5071901;28;20064;-71
2023/04/20 09:43:11;;;;;;;6.82;4.00;;;;;;;18.83;53.91;100162.03;5074971;28;20040;-71
2023/04/20 09:45:43;;;;;;;5.95;3.90;;;;;;;18.85;53.67;100166.28;5074607;28;20048;-72
2023/04/20 09:48:14;;;;;;;6.18;3.58;;;;;;;18.86;53.68;100162.56;5074644;28;20067;-72
2023/04/20 09:50:46;;;;;;;6.32;4.10;;;;;;;18.86;54.07;100159.88;5074689;28;20448;-72
2023/04/20 09:53:19;;;;;;;8.65;4.18;;;;;;;18.91;54.00;100162.13;5074480;28;20064;-71
2023/04/20 09:55:48;;;;;;;7.30;4.10;;;;;;;18.91;53.95;100153.16;5074418;28;20048;-72
2023/04/20 09:58:20;;;;;;;5.70;3.90;;;;;;;18.95;54.08;100160.84;5074418;28;20083;-72
2023/04/20 10:00:48;;;;;;;7.53;4.05;;;;;;;18.95;53.67;100151.88;5074575;28;20055;-72
2023/04/20 10:03:17;;;;;;;4.88;3.70;;;;;;;18.99;53.83;100155.97;5073218;28;20506;-72
2023/04/20 10:05:46;;;;;;;6.53;3.83;;;;;;;19.01;53.94;100153.97;5074208;28;20048;-72
2023/04/20 10:08:14;;;;;;;6.80;4.28;;;;;;;19.03;53.87;100146.59;5074428;28;20078;-71
2023/04/20 10:10:44;;;;;;;5.50;3.67;;;;;;;19.05;53.86;100144.59;5074143;28;20040;-72
2023/04/20 10:13:13;;;;;;;5.75;3.72;;;;;;;19.07;53.65;100150.69;5074473;28;20064;-72
2023/04/20 10:15:42;;;;;;;6.63;4.00;;;;;;;19.09;53.54;100145.97;5074347;28;20135;-72
2023/04/20 10:18:19;;;;;;;6.80;4.00;;;;;;;19.09;53.87;100138.72;5074197;28;20152;-72
2023/04/20 10:20:48;;;;;;;6.13;3.97;;;;;;;19.13;53.57;100139.28;5074293;28;20044;-72
2023/04/20 10:23:18;;;;;;;5.45;4.07;;;;;;;19.16;53.71;100138.97;5074089;28;20131;-72
2023/04/20 10:25:55;;;;;;;6.05;4.10;;;;;;;19.17;53.68;100143.38;5074161;28;20056;-72
2023/04/20 10:28:23;;;;;;;6.65;4.18;;;;;;;19.19;53.68;100144.06;5073900;28;20500;-72
2023/04/20 10:30:54;;;;;;;6.07;3.90;;;;;;;19.21;53.50;100147.50;5073791;28;20544;-72
2023/04/20 10:33:22;;;;;;;5.78;4.00;;;;;;;19.24;53.37;100144.50;5073727;28;20053;-71
2023/04/20 10:35:53;;;;;;;6.22;4.30;;;;;;;19.25;53.36;100139.94;5073739;28;20052;-71
2023/04/20 10:38:30;;;;;;;5.38;3.70;;;;;;;19.30;53.71;100137.63;5073719;28;20490;-71
2023/04/20 10:41:06;;;;;;;5.10;3.90;;;;;;;19.31;53.46;100137.50;5073793;28;20088;-71
2023/04/20 10:43:37;;;;;;;6.25;3.95;;;;;;;19.34;53.41;100139.03;5073790;28;20048;-73
2023/04/20 10:46:15;;;;;;;6.43;3.83;;;;;;;19.37;53.79;100126.03;5073572;28;20056;-70
2023/04/20 10:48:51;;;;;;;5.57;3.88;;;;;;;19.40;53.81;100123.06;5073743;28;20477;-71
2023/04/20 10:51:19;;;;;;;5.72;3.63;;;;;;;19.43;53.45;100125.44;5073250;28;20049;-71
2023/04/20 10:53:58;;;;;;;7.10;3.70;;;;;;;19.47;53.61;100119.72;5073385;28;20076;-71
2023/04/20 10:56:26;;;;;;;6.30;3.85;;;;;;;19.51;53.48;100113.03;5073354;28;20144;-71
2023/04/20 10:59:05;;;;;;;6.28;3.58;;;;;;;19.53;53.42;100116.41;5073432;28;20045;-71
2023/04/20 11:01:35;;;;;;;5.43;4.00;;;;;;;19.54;53.70;100113.56;5073316;28;20052;-71
2023/04/20 11:04:04;;;;;;;5.43;3.78;;;;;;;19.56;53.66;100110.72;5073616;28;20452;-72
2023/04/20 11:06:32;;;;;;;5.78;3.50;;;;;;;19.58;53.26;100108.72;5073318;28;20131;-71
2023/04/20 11:09:00;;;;;;;5.10;3.60;;;;;;;19.59;53.54;100105.00;5073035;28;20048;-71
2023/04/20 11:11:29;;;;;;;5.10;3.58;;;;;;;19.59;53.29;100103.19;5073070;28;20068;-71
2023/04/20 11:14:07;;;;;;;5.32;3.75;;;;;;;19.61;53.31;100103.88;5073163;28;20463;-71
2023/04/20 11:16:37;;;;;;;4.15;3.28;;;;;;;19.66;52.98;100106.94;5073333;28;20045;-70
2023/04/20 11:19:23;;;;;;;6.05;3.80;;;;;;;19.67;53.17;100099.66;5073023;28;20067;-72
2023/04/20 11:21:51;;;;;;;;;;;;;;;19.70;53.18;100100.22;5073305;28;20110;-71
2023/04/20 11:24:19;;;;;;;5.22;3.42;;;;;;;19.70;53.12;100096.69;5073045;28;19927;-70
2023/04/20 11:26:49;;;;;;;7.13;3.63;;;;;;;19.72;53.27;100094.66;5072986;28;20049;-71
2023/04/20 11:29:32;;;;;;;5.10;3.53;;;;;;;19.73;53.00;100099.06;5072578;28;20084;-72
2023/04/20 11:32:04;;;;;;;5.85;3.97;;;;;;;19.77;52.68;100097.75;5072802;28;20049;-70
2023/04/20 11:34:33;;;;;;;4.95;3.58;;;;;;;19.79;52.87;100092.19;5072585;28;20463;-71